DLH9903 EDDS-EDDM
Flight info
| Callsign | DLH9903 |
|---|---|
| Flight time | 0h 28m |
| Altitude | 19000 |
| Route | ABTAL4B ABTAL L173 RIXED Y161 RIDAR Z98 WLD T104 ROKIL ROKIL1A |
| Aircraft | A20N/M-SDE2E3FGHIRWXY/LB1 |
Departure
| Time | 2026-05-06 14:29 |
|---|---|
| Airport | Stuttgart Airport (EDDS) |
Arrival
| Time | 2026-05-06 14:57 |
|---|---|
| Airport | Munich Airport (EDDM) |
| Time | Latitude | Longitude | Altitude | Speed | Heading |
|---|---|---|---|---|---|
| 2026-05-06 13:54 | 48.68916 | 9.19587 | 1288 ft | 0 kts | 342° |
| 2026-05-06 14:16 | 48.68915 | 9.19588 | 1285 ft | 2 kts | 342° |
| 2026-05-06 14:16 | 48.68891 | 9.19598 | 1289 ft | 4 kts | 348° |
| 2026-05-06 14:16 | 48.68865 | 9.19603 | 1286 ft | 4 kts | 8° |
| 2026-05-06 14:17 | 48.68844 | 9.19589 | 1285 ft | 3 kts | 71° |
| 2026-05-06 14:17 | 48.68843 | 9.19585 | 1289 ft | 0 kts | 74° |
| 2026-05-06 14:21 | 48.68844 | 9.19587 | 1285 ft | 1 kts | 75° |
| 2026-05-06 14:21 | 48.68852 | 9.19631 | 1287 ft | 9 kts | 73° |
| 2026-05-06 14:21 | 48.68877 | 9.19761 | 1286 ft | 16 kts | 73° |
| 2026-05-06 14:22 | 48.68933 | 9.19918 | 1287 ft | 18 kts | 57° |
| 2026-05-06 14:22 | 48.68992 | 9.20081 | 1289 ft | 18 kts | 73° |
| 2026-05-06 14:22 | 48.69027 | 9.20257 | 1288 ft | 17 kts | 74° |
| 2026-05-06 14:22 | 48.69059 | 9.20434 | 1286 ft | 17 kts | 81° |
| 2026-05-06 14:23 | 48.69005 | 9.20563 | 1286 ft | 14 kts | 135° |
| 2026-05-06 14:23 | 48.68964 | 9.20687 | 1289 ft | 14 kts | 81° |
| 2026-05-06 14:23 | 48.68988 | 9.20827 | 1288 ft | 14 kts | 75° |
| 2026-05-06 14:23 | 48.69019 | 9.20992 | 1285 ft | 21 kts | 74° |
| 2026-05-06 14:24 | 48.69065 | 9.21233 | 1286 ft | 25 kts | 74° |
| 2026-05-06 14:24 | 48.69114 | 9.21491 | 1287 ft | 26 kts | 74° |
| 2026-05-06 14:24 | 48.69163 | 9.21751 | 1288 ft | 25 kts | 72° |
| 2026-05-06 14:24 | 48.69211 | 9.22003 | 1288 ft | 25 kts | 73° |
| 2026-05-06 14:25 | 48.69258 | 9.22251 | 1286 ft | 24 kts | 73° |
| 2026-05-06 14:25 | 48.69303 | 9.22493 | 1285 ft | 24 kts | 73° |
| 2026-05-06 14:25 | 48.69349 | 9.22731 | 1285 ft | 23 kts | 74° |
| 2026-05-06 14:25 | 48.69394 | 9.22967 | 1289 ft | 23 kts | 73° |
| 2026-05-06 14:26 | 48.69439 | 9.23202 | 1288 ft | 23 kts | 72° |
| 2026-05-06 14:26 | 48.69482 | 9.23433 | 1289 ft | 23 kts | 75° |
| 2026-05-06 14:26 | 48.69525 | 9.23658 | 1289 ft | 22 kts | 73° |
| 2026-05-06 14:26 | 48.69567 | 9.23878 | 1289 ft | 21 kts | 73° |
| 2026-05-06 14:27 | 48.69607 | 9.24089 | 1287 ft | 20 kts | 75° |
| 2026-05-06 14:27 | 48.69566 | 9.24266 | 1288 ft | 17 kts | 131° |
| 2026-05-06 14:27 | 48.69447 | 9.24331 | 1285 ft | 20 kts | 177° |
| 2026-05-06 14:27 | 48.69377 | 9.24244 | 1285 ft | 0 kts | 252° |
| 2026-05-06 14:28 | 48.69372 | 9.24219 | 1286 ft | 10 kts | 253° |
| 2026-05-06 14:28 | 48.69263 | 9.23636 | 1285 ft | 106 kts | 253° |
| 2026-05-06 14:29 | 48.69001 | 9.22220 | 1561 ft | 160 kts | 255° |
| 2026-05-06 14:29 | 48.68647 | 9.20404 | 2247 ft | 198 kts | 253° |
| 2026-05-06 14:29 | 48.68163 | 9.18228 | 2972 ft | 236 kts | 250° |
| 2026-05-06 14:29 | 48.67554 | 9.15786 | 3864 ft | 254 kts | 252° |
| 2026-05-06 14:30 | 48.67089 | 9.13305 | 4780 ft | 244 kts | 255° |
| 2026-05-06 14:30 | 48.66665 | 9.10848 | 6084 ft | 238 kts | 255° |
| 2026-05-06 14:30 | 48.66239 | 9.08522 | 7462 ft | 234 kts | 254° |
| 2026-05-06 14:30 | 48.65759 | 9.06076 | 8457 ft | 249 kts | 253° |
| 2026-05-06 14:31 | 48.65140 | 9.03644 | 9663 ft | 249 kts | 239° |
| 2026-05-06 14:31 | 48.63967 | 9.01677 | 10655 ft | 258 kts | 213° |
| 2026-05-06 14:31 | 48.62302 | 9.00721 | 11715 ft | 263 kts | 186° |
| 2026-05-06 14:31 | 48.60528 | 9.01066 | 12952 ft | 264 kts | 160° |
| 2026-05-06 14:32 | 48.58987 | 9.02645 | 13952 ft | 273 kts | 134° |
| 2026-05-06 14:32 | 48.58043 | 9.05179 | 14762 ft | 285 kts | 108° |
| 2026-05-06 14:32 | 48.57932 | 9.08198 | 15649 ft | 295 kts | 81° |
| 2026-05-06 14:32 | 48.58697 | 9.11075 | 16531 ft | 302 kts | 56° |
| 2026-05-06 14:33 | 48.60202 | 9.13342 | 17298 ft | 314 kts | 40° |
| 2026-05-06 14:33 | 48.61711 | 9.15883 | 17539 ft | 338 kts | 62° |
| 2026-05-06 14:33 | 48.62541 | 9.19243 | 17791 ft | 358 kts | 83° |
| 2026-05-06 14:33 | 48.62667 | 9.23143 | 18079 ft | 378 kts | 91° |
| 2026-05-06 14:34 | 48.62876 | 9.27212 | 18475 ft | 396 kts | 83° |
| 2026-05-06 14:34 | 48.63555 | 9.31205 | 18719 ft | 393 kts | 73° |
| 2026-05-06 14:34 | 48.64502 | 9.35086 | 18800 ft | 397 kts | 71° |
| 2026-05-06 14:34 | 48.65569 | 9.39090 | 18794 ft | 424 kts | 69° |
| 2026-05-06 14:35 | 48.66735 | 9.43293 | 18791 ft | 447 kts | 69° |
| 2026-05-06 14:35 | 48.67982 | 9.47717 | 18788 ft | 466 kts | 69° |
| 2026-05-06 14:35 | 48.69261 | 9.52250 | 18791 ft | 470 kts | 68° |
| 2026-05-06 14:35 | 48.70533 | 9.56773 | 18793 ft | 470 kts | 68° |
| 2026-05-06 14:36 | 48.71813 | 9.61342 | 18791 ft | 471 kts | 68° |
| 2026-05-06 14:36 | 48.73086 | 9.65907 | 18791 ft | 475 kts | 69° |
| 2026-05-06 14:36 | 48.74364 | 9.70503 | 18793 ft | 474 kts | 69° |
| 2026-05-06 14:36 | 48.75645 | 9.75124 | 18793 ft | 475 kts | 69° |
| 2026-05-06 14:37 | 48.76923 | 9.79731 | 18793 ft | 474 kts | 69° |
| 2026-05-06 14:37 | 48.78203 | 9.84339 | 18789 ft | 474 kts | 69° |
| 2026-05-06 14:37 | 48.79474 | 9.88921 | 18789 ft | 475 kts | 69° |
| 2026-05-06 14:37 | 48.80751 | 9.93537 | 18790 ft | 475 kts | 69° |
| 2026-05-06 14:38 | 48.82026 | 9.98153 | 18791 ft | 475 kts | 69° |
| 2026-05-06 14:38 | 48.83301 | 10.02779 | 18789 ft | 474 kts | 69° |
| 2026-05-06 14:38 | 48.84395 | 10.07486 | 18790 ft | 472 kts | 77° |
| 2026-05-06 14:38 | 48.84943 | 10.12355 | 18784 ft | 470 kts | 87° |
| 2026-05-06 14:39 | 48.84939 | 10.17240 | 18788 ft | 468 kts | 97° |
| 2026-05-06 14:39 | 48.84544 | 10.22185 | 18791 ft | 467 kts | 99° |
| 2026-05-06 14:39 | 48.84145 | 10.27076 | 18791 ft | 467 kts | 99° |
| 2026-05-06 14:39 | 48.83466 | 10.31801 | 18789 ft | 461 kts | 111° |
| 2026-05-06 14:40 | 48.82218 | 10.36057 | 18786 ft | 421 kts | 123° |
| 2026-05-06 14:40 | 48.80624 | 10.39562 | 18788 ft | 383 kts | 130° |
| 2026-05-06 14:40 | 48.79058 | 10.42707 | 18798 ft | 383 kts | 130° |
| 2026-05-06 14:40 | 48.77460 | 10.45920 | 18786 ft | 382 kts | 130° |
| 2026-05-06 14:41 | 48.75863 | 10.49147 | 18785 ft | 381 kts | 130° |
| 2026-05-06 14:41 | 48.74272 | 10.52366 | 18604 ft | 382 kts | 131° |
| 2026-05-06 14:41 | 48.72677 | 10.55592 | 18092 ft | 385 kts | 131° |
| 2026-05-06 14:41 | 48.71060 | 10.58853 | 17207 ft | 389 kts | 131° |
| 2026-05-06 14:42 | 48.69457 | 10.62085 | 16669 ft | 381 kts | 131° |
| 2026-05-06 14:42 | 48.67878 | 10.65270 | 16092 ft | 375 kts | 131° |
| 2026-05-06 14:42 | 48.66324 | 10.68399 | 15519 ft | 370 kts | 131° |
| 2026-05-06 14:42 | 48.64785 | 10.71492 | 14937 ft | 365 kts | 131° |
| 2026-05-06 14:43 | 48.63279 | 10.74512 | 14411 ft | 360 kts | 131° |
| 2026-05-06 14:43 | 48.61807 | 10.77469 | 14176 ft | 341 kts | 131° |
| 2026-05-06 14:43 | 48.60426 | 10.80247 | 13983 ft | 320 kts | 132° |
| 2026-05-06 14:43 | 48.59137 | 10.82835 | 13640 ft | 306 kts | 132° |
| 2026-05-06 14:44 | 48.57862 | 10.85375 | 13064 ft | 303 kts | 132° |
| 2026-05-06 14:44 | 48.56580 | 10.87922 | 12639 ft | 300 kts | 132° |
| 2026-05-06 14:44 | 48.55320 | 10.90421 | 12161 ft | 299 kts | 132° |
| 2026-05-06 14:45 | 48.52831 | 10.95368 | 11364 ft | 293 kts | 131° |
| 2026-05-06 14:45 | 48.51599 | 10.97815 | 10938 ft | 291 kts | 131° |
| 2026-05-06 14:45 | 48.50395 | 11.00204 | 10591 ft | 290 kts | 131° |
| 2026-05-06 14:45 | 48.49176 | 11.02623 | 10200 ft | 289 kts | 130° |
| 2026-05-06 14:46 | 48.47973 | 11.05039 | 9825 ft | 287 kts | 129° |
| 2026-05-06 14:46 | 48.46691 | 11.07196 | 9421 ft | 280 kts | 146° |
| 2026-05-06 14:46 | 48.44977 | 11.08383 | 8946 ft | 275 kts | 170° |
| 2026-05-06 14:46 | 48.43092 | 11.08777 | 8494 ft | 273 kts | 174° |
| 2026-05-06 14:47 | 48.41192 | 11.09119 | 8031 ft | 273 kts | 174° |
| 2026-05-06 14:47 | 48.39309 | 11.09448 | 7645 ft | 272 kts | 174° |
| 2026-05-06 14:47 | 48.37467 | 11.09877 | 7258 ft | 272 kts | 163° |
| 2026-05-06 14:47 | 48.35871 | 11.11306 | 6928 ft | 270 kts | 135° |
| 2026-05-06 14:48 | 48.34890 | 11.13702 | 6854 ft | 271 kts | 111° |
| 2026-05-06 14:48 | 48.34445 | 11.16419 | 6790 ft | 263 kts | 100° |
| 2026-05-06 14:48 | 48.34217 | 11.19130 | 6700 ft | 252 kts | 97° |
| 2026-05-06 14:48 | 48.34046 | 11.21700 | 6555 ft | 243 kts | 97° |
| 2026-05-06 14:49 | 48.33869 | 11.24179 | 6402 ft | 240 kts | 98° |
| 2026-05-06 14:49 | 48.33668 | 11.26685 | 6156 ft | 241 kts | 98° |
| 2026-05-06 14:49 | 48.33452 | 11.29155 | 5891 ft | 237 kts | 98° |
| 2026-05-06 14:49 | 48.33237 | 11.31596 | 5621 ft | 234 kts | 96° |
| 2026-05-06 14:50 | 48.33188 | 11.33978 | 5424 ft | 222 kts | 89° |
| 2026-05-06 14:50 | 48.33280 | 11.36204 | 5296 ft | 205 kts | 86° |
| 2026-05-06 14:50 | 48.33409 | 11.38192 | 5200 ft | 184 kts | 85° |
| 2026-05-06 14:50 | 48.33540 | 11.40058 | 5091 ft | 178 kts | 84° |
| 2026-05-06 14:51 | 48.33675 | 11.41936 | 5006 ft | 180 kts | 85° |
| 2026-05-06 14:51 | 48.33808 | 11.43752 | 4921 ft | 177 kts | 84° |
| 2026-05-06 14:51 | 48.33945 | 11.45614 | 4850 ft | 177 kts | 85° |
| 2026-05-06 14:51 | 48.34079 | 11.47439 | 4778 ft | 178 kts | 84° |
| 2026-05-06 14:52 | 48.34215 | 11.49280 | 4694 ft | 176 kts | 84° |
| 2026-05-06 14:52 | 48.34350 | 11.51104 | 4617 ft | 175 kts | 84° |
| 2026-05-06 14:52 | 48.34487 | 11.52953 | 4507 ft | 179 kts | 84° |
| 2026-05-06 14:52 | 48.34623 | 11.54783 | 4320 ft | 178 kts | 84° |
| 2026-05-06 14:53 | 48.34760 | 11.56621 | 4105 ft | 177 kts | 83° |
| 2026-05-06 14:53 | 48.34893 | 11.58417 | 3884 ft | 175 kts | 83° |
| 2026-05-06 14:53 | 48.35027 | 11.60204 | 3668 ft | 165 kts | 83° |
| 2026-05-06 14:53 | 48.35146 | 11.61803 | 3466 ft | 144 kts | 82° |
| 2026-05-06 14:54 | 48.35259 | 11.63286 | 3279 ft | 146 kts | 82° |
| 2026-05-06 14:54 | 48.35335 | 11.64304 | 3156 ft | 144 kts | 82° |
| 2026-05-06 14:54 | 48.35446 | 11.65783 | 2955 ft | 143 kts | 82° |
| 2026-05-06 14:54 | 48.35560 | 11.67278 | 2777 ft | 145 kts | 82° |
| 2026-05-06 14:55 | 48.35706 | 11.69230 | 2532 ft | 139 kts | 83° |
| 2026-05-06 14:55 | 48.35780 | 11.70200 | 2399 ft | 140 kts | 83° |
| 2026-05-06 14:55 | 48.35892 | 11.71656 | 2187 ft | 142 kts | 81° |
| 2026-05-06 14:55 | 48.35996 | 11.73123 | 2004 ft | 141 kts | 81° |
| 2026-05-06 14:56 | 48.36111 | 11.74565 | 1819 ft | 136 kts | 81° |
| 2026-05-06 14:56 | 48.36223 | 11.75971 | 1628 ft | 136 kts | 82° |
| 2026-05-06 14:56 | 48.36333 | 11.77427 | 1470 ft | 140 kts | 82° |
| 2026-05-06 14:56 | 48.36422 | 11.78622 | 1461 ft | 89 kts | 84° |
| 2026-05-06 14:57 | 48.36483 | 11.79429 | 1463 ft | 70 kts | 83° |
| 2026-05-06 14:57 | 48.36497 | 11.79968 | 1457 ft | 15 kts | 99° |
| 2026-05-06 14:57 | 48.36472 | 11.80110 | 1461 ft | 16 kts | 111° |
| 2026-05-06 14:57 | 48.36423 | 11.80277 | 1458 ft | 19 kts | 114° |
| 2026-05-06 14:58 | 48.36368 | 11.80463 | 1465 ft | 20 kts | 117° |
| 2026-05-06 14:58 | 48.36289 | 11.80450 | 1466 ft | 14 kts | 256° |
| 2026-05-06 14:58 | 48.36278 | 11.80288 | 1461 ft | 17 kts | 264° |
| 2026-05-06 14:58 | 48.36262 | 11.80097 | 1464 ft | 20 kts | 263° |
| 2026-05-06 14:59 | 48.36245 | 11.79877 | 1466 ft | 22 kts | 263° |
| 2026-05-06 14:59 | 48.36227 | 11.79638 | 1468 ft | 24 kts | 263° |
| 2026-05-06 14:59 | 48.36206 | 11.79372 | 1465 ft | 27 kts | 264° |
| 2026-05-06 14:59 | 48.36184 | 11.79086 | 1468 ft | 28 kts | 263° |
| 2026-05-06 15:00 | 48.36162 | 11.78782 | 1459 ft | 30 kts | 264° |
| 2026-05-06 15:00 | 48.36140 | 11.78518 | 1464 ft | 24 kts | 264° |
| 2026-05-06 15:00 | 48.36122 | 11.78285 | 1459 ft | 21 kts | 264° |
| 2026-05-06 15:00 | 48.36105 | 11.78074 | 1462 ft | 19 kts | 263° |
| 2026-05-06 15:01 | 48.36091 | 11.77883 | 1457 ft | 17 kts | 263° |
| 2026-05-06 15:01 | 48.36078 | 11.77713 | 1464 ft | 15 kts | 263° |
| 2026-05-06 15:01 | 48.36034 | 11.77661 | 1459 ft | 0 kts | 173° |
| 2026-05-06 15:02 | 48.36028 | 11.77662 | 1463 ft | 4 kts | 172° |
| 2026-05-06 15:02 | 48.35976 | 11.77714 | 1461 ft | 14 kts | 106° |
| 2026-05-06 15:02 | 48.35981 | 11.77883 | 1467 ft | 17 kts | 83° |
| 2026-05-06 15:02 | 48.35995 | 11.78060 | 1464 ft | 17 kts | 83° |
| 2026-05-06 15:03 | 48.36008 | 11.78228 | 1461 ft | 16 kts | 83° |
| 2026-05-06 15:03 | 48.36020 | 11.78385 | 1458 ft | 15 kts | 82° |
| 2026-05-06 15:03 | 48.36031 | 11.78529 | 1467 ft | 13 kts | 82° |
| 2026-05-06 15:03 | 48.36041 | 11.78664 | 1467 ft | 12 kts | 84° |
| 2026-05-06 15:04 | 48.36050 | 11.78785 | 1458 ft | 11 kts | 83° |
| 2026-05-06 15:04 | 48.36059 | 11.78902 | 1466 ft | 12 kts | 84° |
| 2026-05-06 15:04 | 48.36071 | 11.79061 | 1464 ft | 16 kts | 83° |
| 2026-05-06 15:04 | 48.36084 | 11.79226 | 1464 ft | 16 kts | 84° |
| 2026-05-06 15:05 | 48.36031 | 11.79330 | 1467 ft | 12 kts | 171° |
| 2026-05-06 15:05 | 48.35951 | 11.79342 | 1465 ft | 11 kts | 173° |
| 2026-05-06 15:05 | 48.35883 | 11.79377 | 1461 ft | 10 kts | 166° |
| 2026-05-06 15:05 | 48.35811 | 11.79392 | 1458 ft | 11 kts | 172° |
| 2026-05-06 15:06 | 48.35729 | 11.79407 | 1467 ft | 13 kts | 173° |
| 2026-05-06 15:06 | 48.35637 | 11.79423 | 1465 ft | 13 kts | 173° |
| 2026-05-06 15:06 | 48.35546 | 11.79439 | 1464 ft | 13 kts | 174° |
| 2026-05-06 15:06 | 48.35460 | 11.79452 | 1467 ft | 12 kts | 174° |
| 2026-05-06 15:07 | 48.35381 | 11.79466 | 1458 ft | 11 kts | 172° |
| 2026-05-06 15:07 | 48.35319 | 11.79472 | 1463 ft | 5 kts | 200° |
| 2026-05-06 15:07 | 48.35313 | 11.79449 | 1459 ft | 2 kts | 262° |
| 2026-05-06 15:07 | 48.35310 | 11.79402 | 1465 ft | 7 kts | 264° |
| 2026-05-06 15:08 | 48.35306 | 11.79341 | 1467 ft | 2 kts | 263° |
| 2026-05-06 15:08 | 48.35304 | 11.79325 | 1464 ft | 0 kts | 262° |